Time;durP1;ratioP1;P1;durP2;ratioP2;P2;SDS_P1;SDS_P2;PMS_P1;PMS_P2;Temp;Humidity;BMP_temperature;BMP_pressure;BME280_temperature;BME280_humidity;BME280_pressure;Samples;Min_cycle;Max_cycle;Signal;HPM_P1;HPM_P2
2022/03/06 00:01:54;;;;;;;51.35;19.30;;;;;;;;;;5044444;28;20155;-64
2022/03/06 00:04:20;;;;;;;43.60;17.75;;;;;;;;;;5048659;28;20041;-62
2022/03/06 00:06:45;;;;;;;47.58;18.48;;;;;;;;;;5054454;28;20454;-62
2022/03/06 00:09:11;;;;;;;44.75;16.98;;;;;;;;;;5046273;28;20025;-62
2022/03/06 00:11:37;;;;;;;40.35;16.95;;;;;;;;;;5050273;28;20523;-62
2022/03/06 00:14:02;;;;;;;39.78;16.85;;;;;;;;;;5043991;28;20428;-63
2022/03/06 00:16:28;;;;;;;41.88;16.60;;;;;;;;;;5053852;28;20047;-63
2022/03/06 00:18:53;;;;;;;40.92;15.05;;;;;;;;;;5046535;28;20044;-64
2022/03/06 00:21:18;;;;;;;35.42;14.77;;;;;;;;;;5051991;28;20051;-64
2022/03/06 00:23:44;;;;;;;39.50;15.35;;;;;;;;;;5043380;28;20067;-63
2022/03/06 00:26:09;;;;;;;32.88;14.20;;;;;;;;;;5049241;28;20032;-62
2022/03/06 00:28:35;;;;;;;34.95;13.60;;;;;;;;;;5047753;28;20557;-63
2022/03/06 00:31:01;;;;;;;33.63;13.65;;;;;;;;;;5056290;28;20112;-63
2022/03/06 00:33:26;;;;;;;37.53;14.35;;;;;;;;;;5049315;28;20080;-64
2022/03/06 00:35:52;;;;;;;27.08;12.25;;;;;;;;;;5047844;28;20120;-62
2022/03/06 00:38:17;;;;;;;42.25;12.50;;;;;;;;;;5049371;28;20028;-62
2022/03/06 00:40:46;;;;;;;34.67;11.80;;;;;;;;;;5044377;28;20170;-64
2022/03/06 00:43:12;;;;;;;34.22;13.18;;;;;;;;;;5042007;28;20108;-62
2022/03/06 00:45:37;;;;;;;29.45;12.40;;;;;;;;;;5047641;28;20032;-63
2022/03/06 00:48:03;;;;;;;33.38;12.85;;;;;;;;;;5038744;28;20033;-60
2022/03/06 00:50:29;;;;;;;23.70;10.32;;;;;;;;;;5046890;28;20048;-62
2022/03/06 00:52:57;;;;;;;32.25;10.68;;;;;;;;;;5040594;28;20025;-62
2022/03/06 00:55:22;;;;;;;25.88;10.15;;;;;;;;;;5050457;28;20408;-63
2022/03/06 00:57:48;;;;;;;28.35;10.40;;;;;;;;;;5045314;28;20029;-61
2022/03/06 01:00:14;;;;;;;31.38;10.35;;;;;;;;;;5041311;28;20091;-62
2022/03/06 01:02:40;;;;;;;24.45;8.77;;;;;;;;;;5042603;28;20116;-63
2022/03/06 01:05:06;;;;;;;30.30;9.95;;;;;;;;;;5044048;28;20448;-61
2022/03/06 01:07:31;;;;;;;31.30;10.38;;;;;;;;;;5050937;28;20031;-64
2022/03/06 01:09:56;;;;;;;36.95;10.15;;;;;;;;;;5043531;28;20025;-63
2022/03/06 01:12:22;;;;;;;18.38;9.27;;;;;;;;;;5046275;28;20070;-63
2022/03/06 01:14:49;;;;;;;21.90;8.88;;;;;;;;;;5047895;28;20041;-63
2022/03/06 01:17:15;;;;;;;19.73;7.95;;;;;;;;;;5041738;28;20491;-63
2022/03/06 01:19:40;;;;;;;20.85;8.63;;;;;;;;;;5047032;28;20079;-61
2022/03/06 01:22:06;;;;;;;21.20;8.88;;;;;;;;;;5044733;28;20035;-63
2022/03/06 01:24:31;;;;;;;32.80;8.88;;;;;;;;;;5037331;28;20543;-62
2022/03/06 01:26:57;;;;;;;27.33;8.63;;;;;;;;;;5045919;28;20040;-62
2022/03/06 01:29:23;;;;;;;28.67;9.05;;;;;;;;;;5044484;28;20393;-63
2022/03/06 01:31:49;;;;;;;25.17;9.73;;;;;;;;;;5041221;28;20021;-62
2022/03/06 01:34:15;;;;;;;26.45;9.60;;;;;;;;;;5041060;28;20037;-61
2022/03/06 01:36:40;;;;;;;18.45;8.65;;;;;;;;;;5044412;28;20439;-61
2022/03/06 01:39:06;;;;;;;26.30;9.57;;;;;;;;;;5044713;28;20044;-61
2022/03/06 01:41:37;;;;;;;32.80;9.63;;;;;;;;;;5047168;28;20025;-62
2022/03/06 01:44:04;;;;;;;25.63;10.77;;;;;;;;;;5041282;28;20048;-62
2022/03/06 01:46:30;;;;;;;32.85;10.30;;;;;;;;;;5062031;28;20041;-62
2022/03/06 01:48:55;;;;;;;18.35;8.68;;;;;;;;;;5039282;28;20033;-62
2022/03/06 01:51:21;;;;;;;23.85;10.13;;;;;;;;;;5047620;28;20028;-62
2022/03/06 01:53:46;;;;;;;21.85;9.38;;;;;;;;;;5041367;28;20035;-61
2022/03/06 01:56:13;;;;;;;22.70;9.07;;;;;;;;;;5043714;28;20552;-61
2022/03/06 01:58:40;;;;;;;29.90;9.25;;;;;;;;;;5042350;28;20064;-61
2022/03/06 02:01:06;;;;;;;27.48;9.95;;;;;;;;;;5044008;28;20029;-61
2022/03/06 02:03:31;;;;;;;27.15;9.90;;;;;;;;;;5041649;28;20138;-62
2022/03/06 02:05:57;;;;;;;28.85;9.75;;;;;;;;;;5047563;28;20037;-62
2022/03/06 02:08:22;;;;;;;26.58;9.60;;;;;;;;;;5040411;28;20044;-62
2022/03/06 02:10:53;;;;;;;31.05;10.27;;;;;;;;;;5045968;28;20029;-62
2022/03/06 02:13:19;;;;;;;23.48;9.38;;;;;;;;;;5043679;28;20024;-61
2022/03/06 02:15:45;;;;;;;19.00;7.95;;;;;;;;;;5041050;28;20150;-61
2022/03/06 02:18:10;;;;;;;29.67;10.95;;;;;;;;;;5046626;28;20086;-61
2022/03/06 02:20:37;;;;;;;27.98;9.27;;;;;;;;;;5049181;28;20519;-62
2022/03/06 02:23:03;;;;;;;24.05;9.18;;;;;;;;;;5040822;28;20025;-61
2022/03/06 02:25:34;;;;;;;21.00;8.60;;;;;;;;;;5044910;28;20034;-63
2022/03/06 02:28:03;;;;;;;32.15;9.35;;;;;;;;;;5043585;28;20029;-61
2022/03/06 02:30:31;;;;;;;23.27;8.90;;;;;;;;;;5045545;28;20532;-62
2022/03/06 02:32:58;;;;;;;22.00;8.60;;;;;;;;;;5045922;28;20133;-62
2022/03/06 02:35:24;;;;;;;25.70;8.45;;;;;;;;;;5043784;28;20108;-63
2022/03/06 02:37:50;;;;;;;24.58;8.48;;;;;;;;;;5042108;28;20384;-61
2022/03/06 02:40:17;;;;;;;21.65;8.50;;;;;;;;;;5045629;28;20036;-62
2022/03/06 02:42:45;;;;;;;23.63;8.18;;;;;;;;;;5039359;28;20131;-61
2022/03/06 02:45:12;;;;;;;21.48;8.73;;;;;;;;;;5047048;28;20415;-62
2022/03/06 02:47:38;;;;;;;22.55;7.93;;;;;;;;;;5042480;28;20032;-62
2022/03/06 02:50:05;;;;;;;31.92;7.80;;;;;;;;;;5048975;28;20038;-63
2022/03/06 02:52:31;;;;;;;22.88;8.38;;;;;;;;;;5051685;28;20033;-61
2022/03/06 02:54:56;;;;;;;22.17;8.18;;;;;;;;;;5035224;28;20082;-62
2022/03/06 02:57:22;;;;;;;21.33;8.40;;;;;;;;;;5045382;28;20040;-63
2022/03/06 02:59:47;;;;;;;26.60;8.95;;;;;;;;;;5046482;28;20032;-62
2022/03/06 03:02:13;;;;;;;22.58;9.02;;;;;;;;;;5041462;28;20033;-61
2022/03/06 03:04:39;;;;;;;23.48;8.38;;;;;;;;;;5047789;28;20060;-63
2022/03/06 03:07:06;;;;;;;23.92;8.52;;;;;;;;;;5041371;28;20451;-61
2022/03/06 03:09:33;;;;;;;22.25;7.05;;;;;;;;;;5034305;28;20029;-62
2022/03/06 03:11:59;;;;;;;28.63;8.07;;;;;;;;;;5044417;28;20029;-62
2022/03/06 03:14:24;;;;;;;22.98;9.02;;;;;;;;;;5041022;28;20395;-62
2022/03/06 03:16:50;;;;;;;34.70;10.02;;;;;;;;;;5042361;28;20037;-64
2022/03/06 03:19:17;;;;;;;23.83;7.53;;;;;;;;;;5035786;28;20033;-61
2022/03/06 03:21:43;;;;;;;25.90;8.23;;;;;;;;;;5044349;28;20029;-60
2022/03/06 03:24:08;;;;;;;24.63;7.40;;;;;;;;;;5032409;28;20396;-62
2022/03/06 03:26:34;;;;;;;21.77;7.47;;;;;;;;;;5042130;28;20041;-61
2022/03/06 03:28:59;;;;;;;23.73;8.73;;;;;;;;;;5049645;28;20036;-62
2022/03/06 03:31:25;;;;;;;20.33;6.90;;;;;;;;;;5036726;28;20490;-62
2022/03/06 03:33:51;;;;;;;17.83;7.35;;;;;;;;;;5039002;28;20491;-63
2022/03/06 03:36:16;;;;;;;16.48;6.60;;;;;;;;;;5039623;28;20025;-62
2022/03/06 03:38:42;;;;;;;29.75;7.38;;;;;;;;;;5049311;28;20407;-62
2022/03/06 03:41:08;;;;;;;13.93;6.43;;;;;;;;;;5044659;28;20060;-63
2022/03/06 03:43:34;;;;;;;18.05;6.55;;;;;;;;;;5045067;28;20039;-63
2022/03/06 03:46:00;;;;;;;16.63;6.43;;;;;;;;;;5036686;28;20406;-63
2022/03/06 03:48:29;;;;;;;19.92;6.75;;;;;;;;;;5043682;28;20029;-63
2022/03/06 03:50:56;;;;;;;20.73;7.20;;;;;;;;;;5038622;28;20071;-63
2022/03/06 03:53:22;;;;;;;27.30;6.43;;;;;;;;;;5038990;28;20048;-64
2022/03/06 03:55:48;;;;;;;17.73;6.07;;;;;;;;;;5051505;28;20029;-63
2022/03/06 03:58:14;;;;;;;25.35;7.72;;;;;;;;;;5043408;28;20086;-62
2022/03/06 04:00:41;;;;;;;13.73;4.93;;;;;;;;;;5041408;28;20450;-62
2022/03/06 04:03:07;;;;;;;28.50;5.53;;;;;;;;;;5040973;28;20115;-62
2022/03/06 04:05:32;;;;;;;22.00;6.32;;;;;;;;;;5038924;28;23020;-64
2022/03/06 04:07:57;;;;;;;14.90;5.07;;;;;;;;;;5056346;28;20091;-62
2022/03/06 04:10:23;;;;;;;23.85;5.45;;;;;;;;;;5046187;28;20411;-62
2022/03/06 04:12:48;;;;;;;15.43;5.95;;;;;;;;;;5039746;28;20181;-62
2022/03/06 04:15:14;;;;;;;15.73;5.57;;;;;;;;;;5040947;28;20037;-60
2022/03/06 04:17:39;;;;;;;25.13;6.38;;;;;;;;;;5039615;28;20178;-64
2022/03/06 04:20:06;;;;;;;15.25;5.07;;;;;;;;;;5044127;28;20056;-64
2022/03/06 04:22:32;;;;;;;15.20;5.82;;;;;;;;;;5039535;28;20048;-62
2022/03/06 04:24:58;;;;;;;18.27;5.63;;;;;;;;;;5046623;28;20431;-63
2022/03/06 04:27:23;;;;;;;16.10;5.63;;;;;;;;;;5038814;28;20148;-64
2022/03/06 04:29:49;;;;;;;12.95;5.07;;;;;;;;;;5039477;28;20027;-62
2022/03/06 04:32:14;;;;;;;23.67;6.88;;;;;;;;;;5039148;28;20053;-62
2022/03/06 04:34:40;;;;;;;10.30;4.93;;;;;;;;;;5042031;28;20025;-62
2022/03/06 04:37:05;;;;;;;27.58;7.18;;;;;;;;;;5036860;28;20029;-62
2022/03/06 04:39:31;;;;;;;16.27;5.35;;;;;;;;;;5041819;28;20415;-62
2022/03/06 04:41:56;;;;;;;19.58;5.72;;;;;;;;;;5052348;28;20107;-62
2022/03/06 04:44:23;;;;;;;12.02;5.90;;;;;;;;;;5040934;28;20048;-64
2022/03/06 04:46:49;;;;;;;21.35;5.93;;;;;;;;;;5041329;28;21057;-63
2022/03/06 04:49:14;;;;;;;13.45;5.70;;;;;;;;;;5044918;28;20044;-63
2022/03/06 04:51:40;;;;;;;16.85;6.15;;;;;;;;;;5040153;28;20028;-62
2022/03/06 04:54:07;;;;;;;13.25;5.25;;;;;;;;;;5046153;28;20263;-62
2022/03/06 04:56:33;;;;;;;11.60;5.45;;;;;;;;;;5043674;28;20025;-63
2022/03/06 04:58:59;;;;;;;15.55;5.15;;;;;;;;;;5042186;28;20032;-62
2022/03/06 05:01:24;;;;;;;18.63;5.53;;;;;;;;;;5046688;28;20358;-63
2022/03/06 05:03:50;;;;;;;13.48;4.78;;;;;;;;;;5046640;28;20029;-62
2022/03/06 05:06:15;;;;;;;25.67;4.82;;;;;;;;;;5047288;28;21444;-62
2022/03/06 05:08:41;;;;;;;17.00;4.78;;;;;;;;;;5045962;28;20488;-63
2022/03/06 05:11:06;;;;;;;20.25;5.03;;;;;;;;;;5043425;28;20025;-63
2022/03/06 05:13:32;;;;;;;13.80;4.90;;;;;;;;;;5044240;28;20527;-63
2022/03/06 05:15:57;;;;;;;16.35;4.82;;;;;;;;;;5038595;28;20032;-62
2022/03/06 05:18:23;;;;;;;17.52;5.25;;;;;;;;;;5058294;28;20125;-62
2022/03/06 05:20:49;;;;;;;12.15;4.70;;;;;;;;;;5039211;28;20380;-62
2022/03/06 05:23:14;;;;;;;16.80;5.47;;;;;;;;;;5042503;28;20020;-62
2022/03/06 05:25:40;;;;;;;13.38;4.53;;;;;;;;;;5043183;28;20036;-62
2022/03/06 05:28:05;;;;;;;12.07;4.97;;;;;;;;;;5026767;28;20495;-63
2022/03/06 05:30:31;;;;;;;13.73;4.97;;;;;;;;;;5047691;28;20032;-61
2022/03/06 05:32:57;;;;;;;9.07;4.43;;;;;;;;;;5044290;28;20059;-62
2022/03/06 05:35:23;;;;;;;10.95;4.70;;;;;;;;;;5039057;28;20044;-62
2022/03/06 05:37:48;;;;;;;15.95;5.93;;;;;;;;;;5039739;28;20033;-61
2022/03/06 05:40:14;;;;;;;13.27;4.35;;;;;;;;;;5037685;28;20030;-63
2022/03/06 05:42:39;;;;;;;20.10;4.68;;;;;;;;;;5045047;28;20531;-62
2022/03/06 05:45:05;;;;;;;17.75;4.60;;;;;;;;;;5044654;28;20029;-62
2022/03/06 05:47:31;;;;;;;21.08;4.55;;;;;;;;;;5040218;28;20033;-63
2022/03/06 05:49:56;;;;;;;18.58;5.13;;;;;;;;;;5043789;28;20025;-63
2022/03/06 05:52:22;;;;;;;10.32;4.68;;;;;;;;;;5045276;28;20037;-63
2022/03/06 05:54:48;;;;;;;15.07;4.78;;;;;;;;;;5044387;28;20052;-63
2022/03/06 05:57:13;;;;;;;16.23;5.75;;;;;;;;;;5043973;28;20517;-61
2022/03/06 05:59:39;;;;;;;13.18;4.55;;;;;;;;;;5037669;28;20546;-62
2022/03/06 06:02:04;;;;;;;15.88;4.13;;;;;;;;;;5041509;28;20029;-62
2022/03/06 06:04:30;;;;;;;18.55;5.32;;;;;;;;;;5042828;28;20159;-62
2022/03/06 06:06:55;;;;;;;17.00;4.65;;;;;;;;;;5045084;28;20029;-61
2022/03/06 06:09:21;;;;;;;9.82;4.40;;;;;;;;;;5048637;28;20479;-63
2022/03/06 06:11:46;;;;;;;12.20;4.90;;;;;;;;;;5040822;28;20025;-62
2022/03/06 06:14:12;;;;;;;11.65;4.60;;;;;;;;;;5044362;28;20099;-62
2022/03/06 06:16:37;;;;;;;14.23;4.55;;;;;;;;;;5039179;28;20143;-61
2022/03/06 06:19:03;;;;;;;13.10;4.75;;;;;;;;;;5041545;28;20064;-62
2022/03/06 06:21:29;;;;;;;13.35;5.05;;;;;;;;;;5046590;28;20040;-63
2022/03/06 06:23:54;;;;;;;18.50;5.95;;;;;;;;;;5034121;28;20040;-62
2022/03/06 06:26:20;;;;;;;17.10;5.50;;;;;;;;;;5042330;28;20029;-63
2022/03/06 06:28:48;;;;;;;13.77;5.47;;;;;;;;;;5043077;28;20499;-63
2022/03/06 06:31:13;;;;;;;13.88;5.13;;;;;;;;;;5044805;28;20515;-62
2022/03/06 06:33:39;;;;;;;19.83;5.38;;;;;;;;;;5045971;28;20049;-63
2022/03/06 06:36:04;;;;;;;14.77;5.22;;;;;;;;;;5041300;28;20033;-62
2022/03/06 06:38:30;;;;;;;13.55;4.43;;;;;;;;;;5047276;28;20032;-63
2022/03/06 06:40:56;;;;;;;12.73;4.13;;;;;;;;;;5042223;28;20036;-63
2022/03/06 06:43:21;;;;;;;14.43;5.40;;;;;;;;;;5040177;28;20041;-64
2022/03/06 06:45:48;;;;;;;13.63;5.18;;;;;;;;;;5047226;28;20076;-63
2022/03/06 06:48:14;;;;;;;16.40;4.85;;;;;;;;;;5035008;28;20040;-63
2022/03/06 06:50:39;;;;;;;14.68;6.00;;;;;;;;;;5044557;28;20025;-63
2022/03/06 06:53:05;;;;;;;18.67;5.85;;;;;;;;;;5037250;28;20029;-63
2022/03/06 06:55:30;;;;;;;12.85;4.50;;;;;;;;;;5037971;28;20079;-63
2022/03/06 06:57:56;;;;;;;12.27;5.15;;;;;;;;;;5041472;28;20457;-61
2022/03/06 07:00:22;;;;;;;17.52;4.78;;;;;;;;;;5044308;28;20048;-64
2022/03/06 07:02:47;;;;;;;10.73;5.10;;;;;;;;;;5037297;28;20032;-61
2022/03/06 07:05:13;;;;;;;14.15;4.60;;;;;;;;;;5041235;28;20041;-62
2022/03/06 07:07:39;;;;;;;18.50;5.50;;;;;;;;;;5045516;28;20029;-63
2022/03/06 07:10:05;;;;;;;13.40;5.25;;;;;;;;;;5039320;28;20062;-63
2022/03/06 07:12:39;;;;;;;14.98;4.97;;;;;;;;;;5047150;28;20033;-64
2022/03/06 07:15:04;;;;;;;20.42;5.60;;;;;;;;;;5044703;28;20530;-64
2022/03/06 07:17:30;;;;;;;19.13;5.28;;;;;;;;;;5045196;28;20041;-63
2022/03/06 07:19:55;;;;;;;15.00;4.72;;;;;;;;;;5048003;28;20212;-61
2022/03/06 07:22:21;;;;;;;13.70;5.47;;;;;;;;;;5042521;28;20063;-62
2022/03/06 07:24:46;;;;;;;17.17;4.82;;;;;;;;;;5043280;28;20024;-62
2022/03/06 07:27:12;;;;;;;15.57;5.05;;;;;;;;;;5036701;28;20392;-63
2022/03/06 07:29:37;;;;;;;11.07;4.57;;;;;;;;;;5042000;28;20347;-63
2022/03/06 07:32:03;;;;;;;15.65;5.32;;;;;;;;;;5041788;28;20423;-61
2022/03/06 07:34:28;;;;;;;15.63;5.15;;;;;;;;;;5044653;28;20045;-63
2022/03/06 07:36:54;;;;;;;14.75;5.68;;;;;;;;;;5044411;28;20033;-63
2022/03/06 07:39:19;;;;;;;11.95;4.65;;;;;;;;;;5037302;28;20037;-62
2022/03/06 07:41:45;;;;;;;9.80;5.05;;;;;;;;;;5038233;28;20024;-63
2022/03/06 07:44:10;;;;;;;11.80;5.47;;;;;;;;;;5040101;28;20132;-62
2022/03/06 07:46:35;;;;;;;12.95;5.45;;;;;;;;;;5041874;28;20028;-63
2022/03/06 07:49:01;;;;;;;12.18;4.85;;;;;;;;;;5042895;28;20119;-62
2022/03/06 07:51:26;;;;;;;11.63;5.00;;;;;;;;;;5043479;28;20530;-61
2022/03/06 07:53:52;;;;;;;13.85;5.65;;;;;;;;;;5040655;28;20028;-62
2022/03/06 07:56:17;;;;;;;12.40;5.35;;;;;;;;;;5039953;28;20032;-62
2022/03/06 07:58:43;;;;;;;14.30;4.97;;;;;;;;;;5045386;28;20043;-62
2022/03/06 08:01:08;;;;;;;17.95;5.35;;;;;;;;;;5043733;28;20033;-63
2022/03/06 08:03:34;;;;;;;13.02;5.75;;;;;;;;;;5036745;28;20116;-63
2022/03/06 08:05:59;;;;;;;26.60;6.18;;;;;;;;;;5050690;28;20112;-63
2022/03/06 08:08:25;;;;;;;16.60;5.78;;;;;;;;;;5037942;28;20095;-62
2022/03/06 08:10:50;;;;;;;19.83;5.90;;;;;;;;;;5040870;28;20554;-63
2022/03/06 08:13:16;;;;;;;21.45;9.20;;;;;;;;;;5035243;28;20098;-62
2022/03/06 08:15:41;;;;;;;19.80;7.18;;;;;;;;;;5045386;28;20104;-64
2022/03/06 08:18:07;;;;;;;20.58;7.80;;;;;;;;;;5040931;28;20033;-62
2022/03/06 08:20:32;;;;;;;23.35;7.20;;;;;;;;;;5057394;28;20350;-62
2022/03/06 08:22:58;;;;;;;15.75;6.28;;;;;;;;;;5039890;28;20032;-63
2022/03/06 08:25:23;;;;;;;18.58;7.80;;;;;;;;;;5050206;28;20410;-63
2022/03/06 08:27:49;;;;;;;16.27;7.50;;;;;;;;;;5044709;28;20078;-62
2022/03/06 08:30:15;;;;;;;21.92;7.60;;;;;;;;;;5039960;28;20037;-62
2022/03/06 08:32:40;;;;;;;23.63;7.30;;;;;;;;;;5045862;28;20089;-63
2022/03/06 08:35:08;;;;;;;28.42;8.13;;;;;;;;;;5050648;28;20028;-63
2022/03/06 08:37:34;;;;;;;24.30;8.50;;;;;;;;;;5046733;28;20037;-63
2022/03/06 08:39:59;;;;;;;17.95;7.40;;;;;;;;;;5036896;28;20040;-62
2022/03/06 08:42:25;;;;;;;18.00;8.32;;;;;;;;;;5048357;28;20110;-63
2022/03/06 08:44:51;;;;;;;16.85;7.43;;;;;;;;;;5048116;28;20051;-63
2022/03/06 08:47:16;;;;;;;18.40;7.50;;;;;;;;;;5043447;28;20037;-62
2022/03/06 08:49:42;;;;;;;18.77;7.68;;;;;;;;;;5051375;28;20029;-63
2022/03/06 08:52:07;;;;;;;18.65;8.23;;;;;;;;;;5048738;28;20388;-62
2022/03/06 08:54:34;;;;;;;14.75;6.80;;;;;;;;;;5046092;28;20047;-61
2022/03/06 08:57:00;;;;;;;20.17;7.32;;;;;;;;;;5049795;28;20411;-62
2022/03/06 08:59:25;;;;;;;26.70;8.00;;;;;;;;;;5043663;28;20030;-63
2022/03/06 09:01:55;;;;;;;19.58;9.30;;;;;;;;;;5037950;28;20032;-61
2022/03/06 09:04:22;;;;;;;23.60;9.02;;;;;;;;;;5036989;28;20703;-62
2022/03/06 09:06:48;;;;;;;24.77;10.43;;;;;;;;;;5041254;28;20037;-62
2022/03/06 09:09:13;;;;;;;21.00;9.90;;;;;;;;;;5046411;28;20029;-61
2022/03/06 09:11:39;;;;;;;16.92;5.25;;;;;;;;;;5038021;28;20032;-62
2022/03/06 09:14:04;;;;;;;5.95;2.72;;;;;;;;;;5038122;28;20041;-62
2022/03/06 09:16:30;;;;;;;8.75;1.10;;;;;;;;;;5054746;28;20029;-61
2022/03/06 09:18:55;;;;;;;7.82;1.38;;;;;;;;;;5049115;28;20035;-61
2022/03/06 09:21:21;;;;;;;3.85;0.63;;;;;;;;;;5043617;28;20034;-62
2022/03/06 09:23:46;;;;;;;7.50;1.20;;;;;;;;;;5048722;28;20025;-61
2022/03/06 09:26:12;;;;;;;10.52;0.70;;;;;;;;;;5043579;28;20094;-60
2022/03/06 09:28:37;;;;;;;6.82;0.65;;;;;;;;;;5050218;28;20088;-62
2022/03/06 09:31:03;;;;;;;2.17;0.30;;;;;;;;;;5059515;28;20034;-61
2022/03/06 09:33:28;;;;;;;6.00;0.30;;;;;;;;;;5047099;28;20057;-62
2022/03/06 09:35:54;;;;;;;7.03;0.80;;;;;;;;;;5042080;28;20095;-61
2022/03/06 09:38:19;;;;;;;6.45;0.85;;;;;;;;;;5041661;28;20032;-61
2022/03/06 09:40:45;;;;;;;4.55;0.43;;;;;;;;;;5041469;28;20044;-61
2022/03/06 09:43:15;;;;;;;10.10;0.60;;;;;;;;;;5042616;28;20309;-62
2022/03/06 09:45:42;;;;;;;11.82;0.68;;;;;;;;;;5042124;28;20032;-61
2022/03/06 09:48:09;;;;;;;10.75;0.50;;;;;;;;;;5044135;28;20031;-61
2022/03/06 09:50:36;;;;;;;8.10;0.65;;;;;;;;;;5041773;28;20047;-63
2022/03/06 09:53:01;;;;;;;11.35;0.75;;;;;;;;;;5042857;28;20035;-62
2022/03/06 09:55:28;;;;;;;6.43;0.50;;;;;;;;;;5037799;28;20044;-62
2022/03/06 09:57:56;;;;;;;8.70;0.70;;;;;;;;;;5040416;28;20060;-62
2022/03/06 10:00:22;;;;;;;7.05;0.55;;;;;;;;;;5046902;28;20402;-62
2022/03/06 10:02:57;;;;;;;3.45;0.20;;;;;;;;;;5044040;28;20036;-62
2022/03/06 10:05:33;;;;;;;2.95;0.47;;;;;;;;;;5051374;28;20032;-63
2022/03/06 10:08:22;;;;;;;3.58;0.43;;;;;;;;;;5043112;28;20665;-62
2022/03/06 10:10:51;;;;;;;6.18;0.50;;;;;;;;;;5042258;28;20030;-62
2022/03/06 10:13:21;;;;;;;5.43;0.82;;;;;;;;;;5041840;28;20037;-62
2022/03/06 10:16:10;;;;;;;5.05;0.60;;;;;;;;;;5041362;28;20369;-61
2022/03/06 10:18:44;;;;;;;4.88;0.60;;;;;;;;;;5051364;28;20024;-61
2022/03/06 10:21:27;;;;;;;8.02;0.50;;;;;;;;;;5046860;28;20029;-62
2022/03/06 10:23:58;;;;;;;7.25;0.52;;;;;;;;;;5048230;28;20025;-61
2022/03/06 10:26:26;;;;;;;6.33;0.77;;;;;;;;;;5047513;28;20092;-62
2022/03/06 10:29:09;;;;;;;3.33;0.40;;;;;;;;;;5046524;28;20561;-62
2022/03/06 10:31:35;;;;;;;4.93;0.47;;;;;;;;;;5050753;28;20066;-59
2022/03/06 10:34:12;;;;;;;8.23;0.68;;;;;;;;;;5048232;28;20526;-63
2022/03/06 10:36:39;;;;;;;6.05;0.50;;;;;;;;;;5054133;28;20123;-62
2022/03/06 10:39:17;;;;;;;9.55;0.35;;;;;;;;;;5051074;28;20024;-60
2022/03/06 10:41:47;;;;;;;9.60;0.60;;;;;;;;;;5051470;28;20082;-62
2022/03/06 10:44:14;;;;;;;13.95;0.85;;;;;;;;;;5067762;28;20035;-61
2022/03/06 10:46:40;;;;;;;7.20;0.70;;;;;;;;;;5048928;28;20033;-62
2022/03/06 10:49:12;;;;;;;6.60;0.80;;;;;;;;;;5040145;28;20186;-61
2022/03/06 10:51:40;;;;;;;5.32;0.80;;;;;;;;;;5045481;28;20108;-60
2022/03/06 10:54:06;;;;;;;5.65;0.85;;;;;;;;;;5041473;28;20082;-61
2022/03/06 10:56:32;;;;;;;4.53;0.68;;;;;;;;;;5048340;28;20495;-62
2022/03/06 10:58:57;;;;;;;9.50;0.38;;;;;;;;;;5043177;28;20120;-61
2022/03/06 11:01:23;;;;;;;5.97;0.40;;;;;;;;;;5067169;28;20033;-62
2022/03/06 11:03:50;;;;;;;6.07;0.55;;;;;;;;;;5046814;28;20159;-61
2022/03/06 11:06:19;;;;;;;14.40;1.05;;;;;;;;;;5051763;28;20037;-62
2022/03/06 11:08:45;;;;;;;11.68;0.55;;;;;;;;;;5049357;28;20025;-61
2022/03/06 11:11:12;;;;;;;5.82;0.30;;;;;;;;;;5054977;28;20078;-60
2022/03/06 11:13:38;;;;;;;7.65;0.70;;;;;;;;;;5049015;28;20028;-60
2022/03/06 11:16:04;;;;;;;11.02;0.68;;;;;;;;;;5056800;28;20044;-61
2022/03/06 11:18:30;;;;;;;9.77;0.63;;;;;;;;;;5042288;28;20033;-61
2022/03/06 11:20:59;;;;;;;8.60;0.73;;;;;;;;;;5045976;28;20825;-61
2022/03/06 11:23:47;;;;;;;7.45;0.43;;;;;;;;;;5039459;28;20029;-60
2022/03/06 11:26:12;;;;;;;4.82;0.40;;;;;;;;;;5045979;28;20025;-61
2022/03/06 11:28:56;;;;;;;12.68;0.65;;;;;;;;;;5049663;28;20034;-61
2022/03/06 11:31:22;;;;;;;5.95;0.80;;;;;;;;;;5046627;28;20384;-62
2022/03/06 11:34:03;;;;;;;12.60;0.77;;;;;;;;;;5050970;28;20303;-61
2022/03/06 11:36:30;;;;;;;9.63;0.63;;;;;;;;;;5048633;28;20025;-61
2022/03/06 11:38:55;;;;;;;5.43;0.43;;;;;;;;;;5050510;28;20032;-60
2022/03/06 11:41:25;;;;;;;3.80;0.50;;;;;;;;;;5043508;28;20276;-62
2022/03/06 11:43:53;;;;;;;7.70;0.50;;;;;;;;;;5045946;28;20033;-61
2022/03/06 11:46:26;;;;;;;9.02;0.90;;;;;;;;;;5043132;28;20021;-62
2022/03/06 11:48:51;;;;;;;2.40;0.40;;;;;;;;;;5047703;28;20432;-62
2022/03/06 11:51:19;;;;;;;7.22;0.60;;;;;;;;;;5050376;28;20040;-61
2022/03/06 11:53:55;;;;;;;8.43;0.60;;;;;;;;;;5043281;28;20053;-61
2022/03/06 11:59:05;;;;;;;13.73;0.75;;;;;;;;;;5041164;28;20545;-62
2022/03/06 12:01:36;;;;;;;3.70;0.50;;;;;;;;;;5056242;28;20256;-61
2022/03/06 12:04:07;;;;;;;4.28;0.50;;;;;;;;;;5043608;28;20061;-62
2022/03/06 12:06:39;;;;;;;4.07;0.52;;;;;;;;;;5056628;28;20043;-61
2022/03/06 12:09:10;;;;;;;;;;;;;;;;;;5052457;28;20060;-61
2022/03/06 12:11:37;;;;;;;5.75;0.63;;;;;;;;;;5058971;28;19950;-62
2022/03/06 12:14:20;;;;;;;2.58;0.82;;;;;;;;;;5047167;28;20501;-61
2022/03/06 12:17:01;;;;;;;4.57;0.40;;;;;;;;;;5050707;28;20090;-62
2022/03/06 12:19:31;;;;;;;8.15;0.40;;;;;;;;;;5037628;28;20056;-62
2022/03/06 12:22:10;;;;;;;14.43;1.02;;;;;;;;;;5031501;28;20037;-61
2022/03/06 12:24:36;;;;;;;5.13;0.80;;;;;;;;;;5033047;28;20071;-61
2022/03/06 12:27:13;;;;;;;5.13;0.45;;;;;;;;;;5048146;28;20295;-59
2022/03/06 12:29:53;;;;;;;7.82;0.52;;;;;;;;;;5039742;28;20028;-60
2022/03/06 12:32:25;;;;;;;10.48;1.33;;;;;;;;;;5041650;28;20061;-59
2022/03/06 12:35:15;;;;;;;8.40;0.40;;;;;;;;;;5037560;28;20407;-59
2022/03/06 12:37:51;;;;;;;9.93;0.70;;;;;;;;;;5033770;28;20032;-59
2022/03/06 12:40:21;;;;;;;5.20;0.82;;;;;;;;;;5042500;28;20044;-59
2022/03/06 12:42:50;;;;;;;7.03;0.82;;;;;;;;;;5051986;28;20502;-59
2022/03/06 12:45:19;;;;;;;7.60;0.70;;;;;;;;;;5042770;28;20020;-59
2022/03/06 12:47:46;;;;;;;9.20;0.57;;;;;;;;;;5048827;28;20027;-59
2022/03/06 12:50:17;;;;;;;9.40;0.93;;;;;;;;;;5046831;28;20060;-59
2022/03/06 12:52:43;;;;;;;7.10;0.90;;;;;;;;;;5042765;28;20040;-59
2022/03/06 12:55:20;;;;;;;7.07;1.00;;;;;;;;;;5061010;28;20387;-59
2022/03/06 12:57:51;;;;;;;5.43;0.82;;;;;;;;;;5044241;28;20033;-59
2022/03/06 13:00:23;;;;;;;3.65;0.73;;;;;;;;;;5039185;28;20047;-59
2022/03/06 13:02:50;;;;;;;6.93;0.63;;;;;;;;;;5032617;28;20079;-59
2022/03/06 13:05:16;;;;;;;5.50;1.27;;;;;;;;;;5043933;28;20056;-59
2022/03/06 13:07:42;;;;;;;9.32;0.60;;;;;;;;;;5042501;28;20487;-59
2022/03/06 13:10:11;;;;;;;7.65;1.05;;;;;;;;;;5043231;28;20040;-59
2022/03/06 13:12:42;;;;;;;8.98;1.45;;;;;;;;;;5044247;28;20152;-58
2022/03/06 14:09:32;;;;;;;8.40;0.77;;;;;;;;;;5035826;28;20507;-59
2022/03/06 14:12:15;;;;;;;6.47;0.60;;;;;;;;;;5033923;28;20040;-59
2022/03/06 14:14:46;;;;;;;4.72;0.82;;;;;;;;;;5034422;28;20021;-59
2022/03/06 14:17:14;;;;;;;8.52;1.05;;;;;;;;;;5039982;28;20517;-59
2022/03/06 14:19:54;;;;;;;2.80;0.52;;;;;;;;;;5032361;28;20279;-57
2022/03/06 14:22:20;;;;;;;5.93;0.60;;;;;;;;;;5034869;28;20061;-59
2022/03/06 14:24:45;;;;;;;3.55;0.70;;;;;;;;;;5035806;28;20057;-59
2022/03/06 14:27:11;;;;;;;8.50;1.10;;;;;;;;;;5038922;28;20036;-59
2022/03/06 14:29:36;;;;;;;7.95;0.70;;;;;;;;;;5040818;28;20049;-59
2022/03/06 14:32:02;;;;;;;6.85;1.17;;;;;;;;;;5040775;28;20033;-59
2022/03/06 14:34:30;;;;;;;10.10;0.90;;;;;;;;;;5039161;28;20088;-58
2022/03/06 14:36:57;;;;;;;6.97;0.93;;;;;;;;;;5040348;28;20029;-58
2022/03/06 14:39:25;;;;;;;4.45;0.40;;;;;;;;;;5036153;28;20059;-59
2022/03/06 14:41:52;;;;;;;10.02;0.57;;;;;;;;;;5030737;28;20031;-58
2022/03/06 14:44:18;;;;;;;7.55;0.80;;;;;;;;;;5035789;28;20033;-58
2022/03/06 14:46:44;;;;;;;5.55;1.00;;;;;;;;;;5036727;28;20029;-58
2022/03/06 14:49:11;;;;;;;5.30;0.60;;;;;;;;;;5035196;28;20084;-58
2022/03/06 14:51:38;;;;;;;9.77;0.80;;;;;;;;;;5035099;28;20627;-58
2022/03/06 14:54:04;;;;;;;8.10;0.80;;;;;;;;;;5032918;28;20087;-58
2022/03/06 14:56:32;;;;;;;8.82;0.80;;;;;;;;;;5034654;28;20068;-59
2022/03/06 14:58:59;;;;;;;4.60;0.60;;;;;;;;;;5034491;28;20029;-58
2022/03/06 15:01:25;;;;;;;6.20;0.50;;;;;;;;;;5030784;28;20121;-59
2022/03/06 15:03:50;;;;;;;8.20;1.15;;;;;;;;;;5032136;28;20021;-59
2022/03/06 15:06:16;;;;;;;9.75;1.50;;;;;;;;;;5025814;28;20397;-58
2022/03/06 15:08:43;;;;;;;8.20;1.05;;;;;;;;;;5034802;28;20164;-59
2022/03/06 15:11:10;;;;;;;8.23;1.33;;;;;;;;;;5028014;28;20040;-59
2022/03/06 15:13:37;;;;;;;9.30;2.58;;;;;;;;;;5033153;28;20017;-59
2022/03/06 15:16:03;;;;;;;11.15;1.17;;;;;;;;;;5032108;28;20029;-59
2022/03/06 15:18:28;;;;;;;11.02;0.73;;;;;;;;;;5036544;28;20514;-59
2022/03/06 15:20:54;;;;;;;8.50;0.70;;;;;;;;;;5022427;28;20030;-59
2022/03/06 15:23:20;;;;;;;3.15;0.60;;;;;;;;;;5012958;28;20033;-59
2022/03/06 15:25:46;;;;;;;5.22;0.80;;;;;;;;;;5019043;28;20038;-59
2022/03/06 15:28:13;;;;;;;8.15;1.08;;;;;;;;;;5021238;28;20087;-59
2022/03/06 15:30:39;;;;;;;12.38;0.75;;;;;;;;;;5021324;28;20481;-59